sensor_id;sensor_type;location;lat;lon;timestamp;P1;durP1;ratioP1;P2;durP2;ratioP2
69197;SDS011;56311;50.298;8.514;2023-11-21T00:00:00;12.1;;;6.4;;
69197;SDS011;56311;50.298;8.514;2023-11-21T00:02:00;11.2;;;5.4;;
69197;SDS011;56311;50.298;8.514;2023-11-21T00:04:00;11.4;;;5.6;;
69197;SDS011;56311;50.298;8.514;2023-11-21T00:06:00;9.3;;;4.9;;
69197;SDS011;56311;50.298;8.514;2023-11-21T00:08:00;9.0;;;5.0;;
69197;SDS011;56311;50.298;8.514;2023-11-21T00:10:00;12.1;;;4.9;;
69197;SDS011;56311;50.298;8.514;2023-11-21T00:12:00;8.3;;;4.6;;
69197;SDS011;56311;50.298;8.514;2023-11-21T00:14:00;7.8;;;4.4;;
69197;SDS011;56311;50.298;8.514;2023-11-21T00:16:00;9.7;;;4.8;;
69197;SDS011;56311;50.298;8.514;2023-11-21T00:18:00;9.1;;;4.9;;
69197;SDS011;56311;50.298;8.514;2023-11-21T00:20:00;12.8;;;5.3;;
69197;SDS011;56311;50.298;8.514;2023-11-21T00:22:00;10.2;;;5.6;;
69197;SDS011;56311;50.298;8.514;2023-11-21T00:24:00;12.1;;;5.5;;
69197;SDS011;56311;50.298;8.514;2023-11-21T00:26:00;9.7;;;5.0;;
69197;SDS011;56311;50.298;8.514;2023-11-21T00:28:00;8.2;;;5.3;;
69197;SDS011;56311;50.298;8.514;2023-11-21T00:30:00;10.9;;;5.5;;
69197;SDS011;56311;50.298;8.514;2023-11-21T00:32:00;10.8;;;5.5;;
69197;SDS011;56311;50.298;8.514;2023-11-21T00:34:00;11.4;;;6.0;;
69197;SDS011;56311;50.298;8.514;2023-11-21T00:36:00;12.6;;;5.3;;
69197;SDS011;56311;50.298;8.514;2023-11-21T00:38:00;13.3;;;5.9;;
69197;SDS011;56311;50.298;8.514;2023-11-21T00:40:00;9.9;;;5.8;;
69197;SDS011;56311;50.298;8.514;2023-11-21T00:42:00;9.6;;;6.0;;
69197;SDS011;56311;50.298;8.514;2023-11-21T00:44:00;13.1;;;6.2;;
69197;SDS011;56311;50.298;8.514;2023-11-21T00:46:03;11.1;;;6.1;;
69197;SDS011;56311;50.298;8.514;2023-11-21T00:48:00;10.8;;;6.2;;
69197;SDS011;56311;50.298;8.514;2023-11-21T00:50:00;13.8;;;6.9;;
69197;SDS011;56311;50.298;8.514;2023-11-21T00:52:00;12.7;;;7.1;;
69197;SDS011;56311;50.298;8.514;2023-11-21T00:54:00;11.3;;;6.8;;
69197;SDS011;56311;50.298;8.514;2023-11-21T00:56:00;12.4;;;7.2;;
69197;SDS011;56311;50.298;8.514;2023-11-21T00:58:00;15.1;;;6.9;;
69197;SDS011;56311;50.298;8.514;2023-11-21T01:00:00;12.2;;;6.4;;
69197;SDS011;56311;50.298;8.514;2023-11-21T01:02:00;11.9;;;6.5;;
69197;SDS011;56311;50.298;8.514;2023-11-21T01:04:00;12.5;;;7.1;;
69197;SDS011;56311;50.298;8.514;2023-11-21T01:06:00;11.8;;;7.0;;
69197;SDS011;56311;50.298;8.514;2023-11-21T01:08:00;10.5;;;6.8;;
69197;SDS011;56311;50.298;8.514;2023-11-21T01:10:00;9.8;;;6.3;;
69197;SDS011;56311;50.298;8.514;2023-11-21T01:12:00;11.2;;;6.2;;
69197;SDS011;56311;50.298;8.514;2023-11-21T01:14:00;10.2;;;6.5;;
69197;SDS011;56311;50.298;8.514;2023-11-21T01:16:00;11.7;;;7.1;;
69197;SDS011;56311;50.298;8.514;2023-11-21T01:18:00;13.0;;;7.3;;
69197;SDS011;56311;50.298;8.514;2023-11-21T01:20:00;11.6;;;7.3;;
69197;SDS011;56311;50.298;8.514;2023-11-21T01:22:00;12.0;;;7.3;;
69197;SDS011;56311;50.298;8.514;2023-11-21T01:24:00;13.3;;;8.1;;
69197;SDS011;56311;50.298;8.514;2023-11-21T01:26:00;12.7;;;7.2;;
69197;SDS011;56311;50.298;8.514;2023-11-21T01:28:00;13.4;;;7.5;;
69197;SDS011;56311;50.298;8.514;2023-11-21T01:30:01;12.6;;;7.2;;
69197;SDS011;56311;50.298;8.514;2023-11-21T01:32:00;12.1;;;7.0;;
69197;SDS011;56311;50.298;8.514;2023-11-21T01:34:00;11.3;;;7.3;;
69197;SDS011;56311;50.298;8.514;2023-11-21T01:36:00;14.4;;;9.0;;
69197;SDS011;56311;50.298;8.514;2023-11-21T01:38:00;14.7;;;10.1;;
69197;SDS011;56311;50.298;8.514;2023-11-21T01:40:00;14.8;;;9.2;;
69197;SDS011;56311;50.298;8.514;2023-11-21T01:42:00;15.3;;;10.2;;
69197;SDS011;56311;50.298;8.514;2023-11-21T01:44:00;15.7;;;11.3;;
69197;SDS011;56311;50.298;8.514;2023-11-21T01:46:00;16.4;;;10.6;;
69197;SDS011;56311;50.298;8.514;2023-11-21T01:48:00;14.3;;;9.4;;
69197;SDS011;56311;50.298;8.514;2023-11-21T01:50:00;13.0;;;9.0;;
69197;SDS011;56311;50.298;8.514;2023-11-21T01:52:00;13.8;;;9.1;;
69197;SDS011;56311;50.298;8.514;2023-11-21T01:54:00;13.5;;;8.7;;
69197;SDS011;56311;50.298;8.514;2023-11-21T01:56:00;15.0;;;8.7;;
69197;SDS011;56311;50.298;8.514;2023-11-21T01:58:00;14.0;;;8.6;;
69197;SDS011;56311;50.298;8.514;2023-11-21T02:00:00;13.3;;;8.5;;
69197;SDS011;56311;50.298;8.514;2023-11-21T02:02:00;13.1;;;8.3;;
69197;SDS011;56311;50.298;8.514;2023-11-21T02:04:00;14.7;;;8.7;;
69197;SDS011;56311;50.298;8.514;2023-11-21T02:06:00;14.0;;;8.4;;
69197;SDS011;56311;50.298;8.514;2023-11-21T02:08:00;13.8;;;8.8;;
69197;SDS011;56311;50.298;8.514;2023-11-21T02:10:00;13.1;;;9.0;;
69197;SDS011;56311;50.298;8.514;2023-11-21T02:12:00;14.7;;;9.2;;
69197;SDS011;56311;50.298;8.514;2023-11-21T02:14:00;14.5;;;9.7;;
69197;SDS011;56311;50.298;8.514;2023-11-21T02:16:00;16.6;;;10.2;;
69197;SDS011;56311;50.298;8.514;2023-11-21T02:18:00;14.2;;;9.8;;
69197;SDS011;56311;50.298;8.514;2023-11-21T02:20:00;15.5;;;9.4;;
69197;SDS011;56311;50.298;8.514;2023-11-21T02:22:00;16.8;;;9.5;;
69197;SDS011;56311;50.298;8.514;2023-11-21T02:24:00;14.4;;;9.4;;
69197;SDS011;56311;50.298;8.514;2023-11-21T02:26:00;15.2;;;9.7;;
69197;SDS011;56311;50.298;8.514;2023-11-21T02:28:01;18.3;;;10.5;;
69197;SDS011;56311;50.298;8.514;2023-11-21T02:30:00;17.8;;;10.4;;
69197;SDS011;56311;50.298;8.514;2023-11-21T02:32:00;15.1;;;9.7;;
69197;SDS011;56311;50.298;8.514;2023-11-21T02:34:00;24.6;;;10.1;;
69197;SDS011;56311;50.298;8.514;2023-11-21T02:36:00;19.1;;;10.5;;
69197;SDS011;56311;50.298;8.514;2023-11-21T02:38:00;18.1;;;10.2;;
69197;SDS011;56311;50.298;8.514;2023-11-21T02:40:00;18.6;;;10.1;;
69197;SDS011;56311;50.298;8.514;2023-11-21T02:42:00;17.2;;;10.2;;
69197;SDS011;56311;50.298;8.514;2023-11-21T02:44:00;19.2;;;10.0;;
69197;SDS011;56311;50.298;8.514;2023-11-21T02:46:00;20.6;;;11.1;;
69197;SDS011;56311;50.298;8.514;2023-11-21T02:48:00;20.0;;;11.3;;
69197;SDS011;56311;50.298;8.514;2023-11-21T02:50:00;18.5;;;10.4;;
69197;SDS011;56311;50.298;8.514;2023-11-21T02:52:00;20.7;;;10.9;;
69197;SDS011;56311;50.298;8.514;2023-11-21T02:54:00;19.2;;;10.5;;
69197;SDS011;56311;50.298;8.514;2023-11-21T02:56:00;22.2;;;10.5;;
69197;SDS011;56311;50.298;8.514;2023-11-21T02:58:00;17.0;;;10.1;;
69197;SDS011;56311;50.298;8.514;2023-11-21T03:00:00;19.7;;;9.7;;
69197;SDS011;56311;50.298;8.514;2023-11-21T03:02:00;21.5;;;10.4;;
69197;SDS011;56311;50.298;8.514;2023-11-21T03:04:00;25.7;;;10.8;;
69197;SDS011;56311;50.298;8.514;2023-11-21T03:06:00;36.5;;;11.0;;
69197;SDS011;56311;50.298;8.514;2023-11-21T03:08:00;46.5;;;11.4;;
69197;SDS011;56311;50.298;8.514;2023-11-21T03:10:00;34.7;;;11.9;;
69197;SDS011;56311;50.298;8.514;2023-11-21T03:12:00;24.7;;;11.6;;
69197;SDS011;56311;50.298;8.514;2023-11-21T03:14:00;27.2;;;12.2;;
69197;SDS011;56311;50.298;8.514;2023-11-21T03:16:00;27.6;;;12.5;;
69197;SDS011;56311;50.298;8.514;2023-11-21T03:18:00;24.8;;;12.4;;
69197;SDS011;56311;50.298;8.514;2023-11-21T03:20:01;26.8;;;12.7;;
69197;SDS011;56311;50.298;8.514;2023-11-21T03:22:00;27.0;;;12.8;;
69197;SDS011;56311;50.298;8.514;2023-11-21T03:24:00;24.6;;;12.6;;
69197;SDS011;56311;50.298;8.514;2023-11-21T03:26:00;25.3;;;12.9;;
69197;SDS011;56311;50.298;8.514;2023-11-21T03:28:00;26.3;;;13.3;;
69197;SDS011;56311;50.298;8.514;2023-11-21T03:30:00;27.2;;;13.2;;
69197;SDS011;56311;50.298;8.514;2023-11-21T03:32:00;24.8;;;12.2;;
69197;SDS011;56311;50.298;8.514;2023-11-21T03:34:00;24.3;;;11.9;;
69197;SDS011;56311;50.298;8.514;2023-11-21T03:36:00;23.6;;;11.6;;
69197;SDS011;56311;50.298;8.514;2023-11-21T03:38:00;25.1;;;11.9;;
69197;SDS011;56311;50.298;8.514;2023-11-21T03:40:00;31.3;;;13.2;;
69197;SDS011;56311;50.298;8.514;2023-11-21T03:42:00;28.8;;;12.9;;
69197;SDS011;56311;50.298;8.514;2023-11-21T03:44:00;27.7;;;13.1;;
69197;SDS011;56311;50.298;8.514;2023-11-21T03:46:00;31.7;;;13.5;;
69197;SDS011;56311;50.298;8.514;2023-11-21T03:48:00;29.2;;;13.5;;
69197;SDS011;56311;50.298;8.514;2023-11-21T03:50:00;30.6;;;14.4;;
69197;SDS011;56311;50.298;8.514;2023-11-21T03:52:00;32.7;;;13.9;;
69197;SDS011;56311;50.298;8.514;2023-11-21T03:54:00;31.6;;;14.1;;
69197;SDS011;56311;50.298;8.514;2023-11-21T03:56:01;28.4;;;13.4;;
69197;SDS011;56311;50.298;8.514;2023-11-21T03:58:00;37.4;;;14.8;;
69197;SDS011;56311;50.298;8.514;2023-11-21T04:00:00;37.7;;;14.1;;
69197;SDS011;56311;50.298;8.514;2023-11-21T04:02:00;39.3;;;14.6;;
69197;SDS011;56311;50.298;8.514;2023-11-21T04:04:01;34.9;;;13.4;;
69197;SDS011;56311;50.298;8.514;2023-11-21T04:06:00;31.1;;;13.0;;
69197;SDS011;56311;50.298;8.514;2023-11-21T04:08:00;33.2;;;12.5;;
69197;SDS011;56311;50.298;8.514;2023-11-21T04:10:00;24.4;;;12.4;;
69197;SDS011;56311;50.298;8.514;2023-11-21T04:12:00;28.5;;;12.6;;
69197;SDS011;56311;50.298;8.514;2023-11-21T04:14:00;27.4;;;12.6;;
69197;SDS011;56311;50.298;8.514;2023-11-21T04:16:00;24.0;;;12.0;;
69197;SDS011;56311;50.298;8.514;2023-11-21T04:18:00;26.2;;;11.8;;
69197;SDS011;56311;50.298;8.514;2023-11-21T04:20:00;20.6;;;11.5;;
69197;SDS011;56311;50.298;8.514;2023-11-21T04:22:00;20.1;;;11.4;;
69197;SDS011;56311;50.298;8.514;2023-11-21T04:24:00;19.4;;;11.1;;
69197;SDS011;56311;50.298;8.514;2023-11-21T04:26:00;16.6;;;10.1;;
69197;SDS011;56311;50.298;8.514;2023-11-21T04:28:00;17.2;;;10.6;;
69197;SDS011;56311;50.298;8.514;2023-11-21T04:30:00;17.7;;;10.4;;
69197;SDS011;56311;50.298;8.514;2023-11-21T04:32:00;16.2;;;10.1;;
69197;SDS011;56311;50.298;8.514;2023-11-21T04:34:00;19.1;;;10.6;;
69197;SDS011;56311;50.298;8.514;2023-11-21T04:36:00;17.4;;;10.1;;
69197;SDS011;56311;50.298;8.514;2023-11-21T04:38:00;15.2;;;8.9;;
69197;SDS011;56311;50.298;8.514;2023-11-21T04:40:00;15.4;;;9.0;;
69197;SDS011;56311;50.298;8.514;2023-11-21T04:42:01;12.6;;;8.5;;
69197;SDS011;56311;50.298;8.514;2023-11-21T04:44:00;13.7;;;8.0;;
69197;SDS011;56311;50.298;8.514;2023-11-21T04:46:00;16.1;;;8.5;;
69197;SDS011;56311;50.298;8.514;2023-11-21T04:48:00;13.8;;;8.0;;
69197;SDS011;56311;50.298;8.514;2023-11-21T04:50:00;12.8;;;7.8;;
69197;SDS011;56311;50.298;8.514;2023-11-21T04:52:00;12.2;;;7.8;;
69197;SDS011;56311;50.298;8.514;2023-11-21T04:54:00;13.0;;;7.7;;
69197;SDS011;56311;50.298;8.514;2023-11-21T04:56:00;12.3;;;7.7;;
69197;SDS011;56311;50.298;8.514;2023-11-21T04:58:00;11.8;;;7.9;;
69197;SDS011;56311;50.298;8.514;2023-11-21T05:00:00;13.1;;;8.1;;
69197;SDS011;56311;50.298;8.514;2023-11-21T05:02:00;14.3;;;8.4;;
69197;SDS011;56311;50.298;8.514;2023-11-21T05:04:00;13.6;;;7.7;;
69197;SDS011;56311;50.298;8.514;2023-11-21T05:06:01;13.6;;;7.6;;
69197;SDS011;56311;50.298;8.514;2023-11-21T05:08:00;11.3;;;7.1;;
69197;SDS011;56311;50.298;8.514;2023-11-21T05:10:00;13.1;;;7.4;;
69197;SDS011;56311;50.298;8.514;2023-11-21T05:12:00;13.5;;;8.2;;
69197;SDS011;56311;50.298;8.514;2023-11-21T05:14:00;12.8;;;8.2;;
69197;SDS011;56311;50.298;8.514;2023-11-21T05:16:00;12.1;;;8.0;;
69197;SDS011;56311;50.298;8.514;2023-11-21T05:18:00;12.1;;;8.1;;
69197;SDS011;56311;50.298;8.514;2023-11-21T05:20:00;14.3;;;8.0;;
69197;SDS011;56311;50.298;8.514;2023-11-21T05:22:00;12.8;;;8.3;;
69197;SDS011;56311;50.298;8.514;2023-11-21T05:24:00;15.0;;;8.6;;
69197;SDS011;56311;50.298;8.514;2023-11-21T05:26:00;13.1;;;8.3;;
69197;SDS011;56311;50.298;8.514;2023-11-21T05:28:00;11.9;;;7.4;;
69197;SDS011;56311;50.298;8.514;2023-11-21T05:30:00;16.3;;;8.0;;
69197;SDS011;56311;50.298;8.514;2023-11-21T05:32:00;10.6;;;6.6;;
69197;SDS011;56311;50.298;8.514;2023-11-21T05:34:00;12.2;;;6.3;;
69197;SDS011;56311;50.298;8.514;2023-11-21T05:36:00;10.0;;;6.4;;
69197;SDS011;56311;50.298;8.514;2023-11-21T05:38:00;10.8;;;6.2;;
69197;SDS011;56311;50.298;8.514;2023-11-21T05:40:00;8.8;;;5.8;;
69197;SDS011;56311;50.298;8.514;2023-11-21T05:42:00;10.1;;;6.6;;
69197;SDS011;56311;50.298;8.514;2023-11-21T05:44:00;9.4;;;6.0;;
69197;SDS011;56311;50.298;8.514;2023-11-21T05:46:00;9.8;;;5.8;;
69197;SDS011;56311;50.298;8.514;2023-11-21T05:48:00;9.5;;;6.3;;
69197;SDS011;56311;50.298;8.514;2023-11-21T05:50:00;9.7;;;5.9;;
69197;SDS011;56311;50.298;8.514;2023-11-21T05:52:00;10.1;;;6.4;;
69197;SDS011;56311;50.298;8.514;2023-11-21T05:54:00;9.8;;;5.7;;
69197;SDS011;56311;50.298;8.514;2023-11-21T05:56:00;10.5;;;5.9;;
69197;SDS011;56311;50.298;8.514;2023-11-21T05:58:00;9.3;;;5.6;;
69197;SDS011;56311;50.298;8.514;2023-11-21T06:00:00;10.2;;;6.0;;
69197;SDS011;56311;50.298;8.514;2023-11-21T06:02:00;9.2;;;5.9;;
69197;SDS011;56311;50.298;8.514;2023-11-21T06:04:00;10.5;;;6.6;;
69197;SDS011;56311;50.298;8.514;2023-11-21T06:06:00;10.8;;;6.5;;
69197;SDS011;56311;50.298;8.514;2023-11-21T06:08:00;12.5;;;6.9;;
69197;SDS011;56311;50.298;8.514;2023-11-21T06:10:00;9.4;;;6.5;;
69197;SDS011;56311;50.298;8.514;2023-11-21T06:12:00;9.8;;;6.8;;
69197;SDS011;56311;50.298;8.514;2023-11-21T06:14:00;9.8;;;6.2;;
69197;SDS011;56311;50.298;8.514;2023-11-21T06:16:00;10.1;;;6.0;;
69197;SDS011;56311;50.298;8.514;2023-11-21T06:18:00;11.8;;;6.6;;
69197;SDS011;56311;50.298;8.514;2023-11-21T06:20:00;9.5;;;5.5;;
69197;SDS011;56311;50.298;8.514;2023-11-21T06:22:00;8.6;;;5.7;;
69197;SDS011;56311;50.298;8.514;2023-11-21T06:24:00;9.4;;;5.5;;
69197;SDS011;56311;50.298;8.514;2023-11-21T06:26:00;8.6;;;5.3;;
69197;SDS011;56311;50.298;8.514;2023-11-21T06:28:00;8.7;;;5.3;;
69197;SDS011;56311;50.298;8.514;2023-11-21T06:30:00;7.8;;;5.2;;
69197;SDS011;56311;50.298;8.514;2023-11-21T06:32:00;7.5;;;4.9;;
69197;SDS011;56311;50.298;8.514;2023-11-21T06:34:00;7.4;;;4.8;;
69197;SDS011;56311;50.298;8.514;2023-11-21T06:36:00;6.4;;;4.3;;
69197;SDS011;56311;50.298;8.514;2023-11-21T06:38:00;7.2;;;4.4;;
69197;SDS011;56311;50.298;8.514;2023-11-21T06:40:00;6.7;;;4.1;;
69197;SDS011;56311;50.298;8.514;2023-11-21T06:42:00;6.8;;;4.1;;
69197;SDS011;56311;50.298;8.514;2023-11-21T06:44:00;7.0;;;4.3;;
69197;SDS011;56311;50.298;8.514;2023-11-21T06:46:00;9.3;;;4.3;;
69197;SDS011;56311;50.298;8.514;2023-11-21T06:48:00;6.4;;;4.0;;
69197;SDS011;56311;50.298;8.514;2023-11-21T06:50:00;6.6;;;3.8;;
69197;SDS011;56311;50.298;8.514;2023-11-21T06:52:00;7.2;;;4.1;;
69197;SDS011;56311;50.298;8.514;2023-11-21T06:54:00;6.9;;;3.7;;
69197;SDS011;56311;50.298;8.514;2023-11-21T06:56:00;7.9;;;4.0;;
69197;SDS011;56311;50.298;8.514;2023-11-21T06:58:00;8.2;;;4.2;;
69197;SDS011;56311;50.298;8.514;2023-11-21T07:00:00;7.5;;;3.9;;
69197;SDS011;56311;50.298;8.514;2023-11-21T07:02:00;8.7;;;3.8;;
69197;SDS011;56311;50.298;8.514;2023-11-21T07:04:00;8.3;;;3.9;;
69197;SDS011;56311;50.298;8.514;2023-11-21T07:06:00;7.4;;;4.1;;
69197;SDS011;56311;50.298;8.514;2023-11-21T07:08:00;7.6;;;4.5;;
69197;SDS011;56311;50.298;8.514;2023-11-21T07:10:00;8.1;;;4.6;;
69197;SDS011;56311;50.298;8.514;2023-11-21T07:12:00;7.4;;;4.6;;
69197;SDS011;56311;50.298;8.514;2023-11-21T07:14:00;9.1;;;4.8;;
69197;SDS011;56311;50.298;8.514;2023-11-21T07:16:00;10.5;;;4.8;;
69197;SDS011;56311;50.298;8.514;2023-11-21T07:18:00;11.2;;;4.6;;
69197;SDS011;56311;50.298;8.514;2023-11-21T07:20:00;9.4;;;4.3;;
69197;SDS011;56311;50.298;8.514;2023-11-21T07:22:00;8.9;;;4.7;;
69197;SDS011;56311;50.298;8.514;2023-11-21T07:24:00;8.5;;;5.1;;
69197;SDS011;56311;50.298;8.514;2023-11-21T07:26:00;8.1;;;4.7;;
69197;SDS011;56311;50.298;8.514;2023-11-21T07:28:00;8.6;;;5.1;;
69197;SDS011;56311;50.298;8.514;2023-11-21T07:30:00;9.8;;;5.3;;
69197;SDS011;56311;50.298;8.514;2023-11-21T07:32:00;12.1;;;5.6;;
69197;SDS011;56311;50.298;8.514;2023-11-21T07:34:00;9.3;;;5.2;;
69197;SDS011;56311;50.298;8.514;2023-11-21T07:36:00;9.5;;;4.6;;
69197;SDS011;56311;50.298;8.514;2023-11-21T07:38:00;10.4;;;5.0;;
69197;SDS011;56311;50.298;8.514;2023-11-21T07:40:00;10.5;;;5.1;;
69197;SDS011;56311;50.298;8.514;2023-11-21T07:42:00;10.7;;;5.7;;
69197;SDS011;56311;50.298;8.514;2023-11-21T07:44:00;10.7;;;5.4;;
69197;SDS011;56311;50.298;8.514;2023-11-21T07:46:00;10.2;;;5.5;;
69197;SDS011;56311;50.298;8.514;2023-11-21T07:48:00;10.8;;;5.1;;
69197;SDS011;56311;50.298;8.514;2023-11-21T07:50:00;9.0;;;5.5;;
69197;SDS011;56311;50.298;8.514;2023-11-21T07:52:00;10.0;;;5.5;;
69197;SDS011;56311;50.298;8.514;2023-11-21T07:54:01;10.1;;;6.1;;
69197;SDS011;56311;50.298;8.514;2023-11-21T07:56:02;9.3;;;5.8;;
69197;SDS011;56311;50.298;8.514;2023-11-21T07:58:00;10.7;;;6.0;;
69197;SDS011;56311;50.298;8.514;2023-11-21T08:00:00;9.7;;;5.8;;
69197;SDS011;56311;50.298;8.514;2023-11-21T08:02:00;11.0;;;5.9;;
69197;SDS011;56311;50.298;8.514;2023-11-21T08:04:00;11.1;;;5.9;;
69197;SDS011;56311;50.298;8.514;2023-11-21T08:06:00;9.5;;;5.4;;
69197;SDS011;56311;50.298;8.514;2023-11-21T08:08:00;11.2;;;5.5;;
69197;SDS011;56311;50.298;8.514;2023-11-21T08:10:00;11.9;;;6.2;;
69197;SDS011;56311;50.298;8.514;2023-11-21T08:12:00;11.1;;;6.0;;
69197;SDS011;56311;50.298;8.514;2023-11-21T08:14:00;10.0;;;5.2;;
69197;SDS011;56311;50.298;8.514;2023-11-21T08:16:00;15.6;;;8.5;;
69197;SDS011;56311;50.298;8.514;2023-11-21T08:18:00;8.8;;;4.6;;
69197;SDS011;56311;50.298;8.514;2023-11-21T08:20:00;7.9;;;4.6;;
69197;SDS011;56311;50.298;8.514;2023-11-21T08:22:00;11.5;;;5.9;;
69197;SDS011;56311;50.298;8.514;2023-11-21T08:24:00;9.7;;;6.3;;
69197;SDS011;56311;50.298;8.514;2023-11-21T08:26:00;16.8;;;12.9;;
69197;SDS011;56311;50.298;8.514;2023-11-21T08:28:00;11.3;;;5.2;;
69197;SDS011;56311;50.298;8.514;2023-11-21T08:30:00;11.8;;;4.9;;
69197;SDS011;56311;50.298;8.514;2023-11-21T08:32:00;10.8;;;4.9;;
69197;SDS011;56311;50.298;8.514;2023-11-21T08:34:00;11.8;;;5.2;;
69197;SDS011;56311;50.298;8.514;2023-11-21T08:36:00;10.8;;;5.1;;
69197;SDS011;56311;50.298;8.514;2023-11-21T08:38:00;9.6;;;5.0;;
69197;SDS011;56311;50.298;8.514;2023-11-21T08:40:00;13.0;;;4.6;;
69197;SDS011;56311;50.298;8.514;2023-11-21T08:42:00;9.9;;;4.6;;
69197;SDS011;56311;50.298;8.514;2023-11-21T08:44:00;9.2;;;4.3;;
69197;SDS011;56311;50.298;8.514;2023-11-21T08:46:00;11.0;;;4.6;;
69197;SDS011;56311;50.298;8.514;2023-11-21T08:48:00;11.0;;;4.2;;
69197;SDS011;56311;50.298;8.514;2023-11-21T08:50:00;11.1;;;4.6;;
69197;SDS011;56311;50.298;8.514;2023-11-21T08:52:00;10.0;;;4.5;;
69197;SDS011;56311;50.298;8.514;2023-11-21T08:54:00;9.7;;;4.5;;
69197;SDS011;56311;50.298;8.514;2023-11-21T08:56:00;12.4;;;4.8;;
69197;SDS011;56311;50.298;8.514;2023-11-21T08:58:00;12.4;;;6.8;;
69197;SDS011;56311;50.298;8.514;2023-11-21T09:00:00;11.9;;;5.1;;
69197;SDS011;56311;50.298;8.514;2023-11-21T09:02:00;12.7;;;5.6;;
69197;SDS011;56311;50.298;8.514;2023-11-21T09:04:00;9.2;;;4.7;;
69197;SDS011;56311;50.298;8.514;2023-11-21T09:06:00;11.2;;;5.0;;
69197;SDS011;56311;50.298;8.514;2023-11-21T09:08:00;10.5;;;4.7;;
69197;SDS011;56311;50.298;8.514;2023-11-21T09:10:00;11.9;;;4.6;;
69197;SDS011;56311;50.298;8.514;2023-11-21T09:12:00;9.2;;;4.5;;
69197;SDS011;56311;50.298;8.514;2023-11-21T09:14:00;12.1;;;5.0;;
69197;SDS011;56311;50.298;8.514;2023-11-21T09:16:00;11.3;;;4.7;;
69197;SDS011;56311;50.298;8.514;2023-11-21T09:18:00;10.9;;;5.0;;
69197;SDS011;56311;50.298;8.514;2023-11-21T09:20:00;11.5;;;4.7;;
69197;SDS011;56311;50.298;8.514;2023-11-21T09:22:00;11.4;;;4.8;;
69197;SDS011;56311;50.298;8.514;2023-11-21T09:24:00;10.2;;;4.7;;
69197;SDS011;56311;50.298;8.514;2023-11-21T09:26:00;11.3;;;4.6;;
69197;SDS011;56311;50.298;8.514;2023-11-21T09:28:00;9.3;;;4.6;;
69197;SDS011;56311;50.298;8.514;2023-11-21T09:30:00;11.5;;;4.5;;
69197;SDS011;56311;50.298;8.514;2023-11-21T09:32:00;8.5;;;4.8;;
69197;SDS011;56311;50.298;8.514;2023-11-21T09:34:00;10.2;;;4.6;;
69197;SDS011;56311;50.298;8.514;2023-11-21T09:36:00;9.6;;;5.4;;
69197;SDS011;56311;50.298;8.514;2023-11-21T09:38:00;11.0;;;5.3;;
69197;SDS011;56311;50.298;8.514;2023-11-21T09:40:00;9.4;;;4.8;;
69197;SDS011;56311;50.298;8.514;2023-11-21T09:42:04;9.5;;;4.9;;
69197;SDS011;56311;50.298;8.514;2023-11-21T09:44:00;11.7;;;5.1;;
69197;SDS011;56311;50.298;8.514;2023-11-21T09:46:00;12.8;;;5.4;;
69197;SDS011;56311;50.298;8.514;2023-11-21T09:48:00;9.5;;;4.7;;
69197;SDS011;56311;50.298;8.514;2023-11-21T09:50:00;12.1;;;4.9;;
69197;SDS011;56311;50.298;8.514;2023-11-21T09:52:01;9.2;;;5.1;;
69197;SDS011;56311;50.298;8.514;2023-11-21T09:54:00;12.6;;;5.3;;
69197;SDS011;56311;50.298;8.514;2023-11-21T09:56:00;10.7;;;4.8;;
69197;SDS011;56311;50.298;8.514;2023-11-21T09:58:00;12.5;;;4.6;;
69197;SDS011;56311;50.298;8.514;2023-11-21T10:00:00;9.0;;;4.7;;
69197;SDS011;56311;50.298;8.514;2023-11-21T10:02:00;9.7;;;4.4;;
69197;SDS011;56311;50.298;8.514;2023-11-21T10:04:00;10.1;;;4.1;;
69197;SDS011;56311;50.298;8.514;2023-11-21T10:06:00;9.3;;;5.3;;
69197;SDS011;56311;50.298;8.514;2023-11-21T10:08:00;12.1;;;4.8;;
69197;SDS011;56311;50.298;8.514;2023-11-21T10:10:00;13.0;;;5.7;;
69197;SDS011;56311;50.298;8.514;2023-11-21T10:12:00;8.2;;;4.7;;
69197;SDS011;56311;50.298;8.514;2023-11-21T10:14:00;10.2;;;4.2;;
69197;SDS011;56311;50.298;8.514;2023-11-21T10:16:00;9.8;;;4.2;;
69197;SDS011;56311;50.298;8.514;2023-11-21T10:18:00;8.9;;;4.1;;
69197;SDS011;56311;50.298;8.514;2023-11-21T10:20:00;8.4;;;4.3;;
69197;SDS011;56311;50.298;8.514;2023-11-21T10:22:00;7.9;;;4.0;;
69197;SDS011;56311;50.298;8.514;2023-11-21T10:24:00;10.5;;;4.4;;
69197;SDS011;56311;50.298;8.514;2023-11-21T10:26:00;7.5;;;4.2;;
69197;SDS011;56311;50.298;8.514;2023-11-21T10:28:02;8.4;;;4.3;;
69197;SDS011;56311;50.298;8.514;2023-11-21T10:30:00;11.0;;;5.0;;
69197;SDS011;56311;50.298;8.514;2023-11-21T10:32:01;8.6;;;4.9;;
69197;SDS011;56311;50.298;8.514;2023-11-21T10:36:00;10.5;;;5.0;;
69197;SDS011;56311;50.298;8.514;2023-11-21T10:38:00;10.1;;;4.2;;
69197;SDS011;56311;50.298;8.514;2023-11-21T10:40:00;8.5;;;4.1;;
69197;SDS011;56311;50.298;8.514;2023-11-21T10:42:01;12.4;;;4.1;;
69197;SDS011;56311;50.298;8.514;2023-11-21T10:44:00;8.9;;;3.6;;
69197;SDS011;56311;50.298;8.514;2023-11-21T10:46:00;9.1;;;3.6;;
69197;SDS011;56311;50.298;8.514;2023-11-21T10:48:00;8.8;;;3.5;;
69197;SDS011;56311;50.298;8.514;2023-11-21T10:50:00;7.4;;;3.2;;
69197;SDS011;56311;50.298;8.514;2023-11-21T10:52:00;7.9;;;3.7;;
69197;SDS011;56311;50.298;8.514;2023-11-21T10:54:00;8.2;;;3.8;;
69197;SDS011;56311;50.298;8.514;2023-11-21T10:56:01;10.4;;;3.8;;
69197;SDS011;56311;50.298;8.514;2023-11-21T10:58:00;7.4;;;3.4;;
69197;SDS011;56311;50.298;8.514;2023-11-21T11:00:00;13.5;;;4.9;;
69197;SDS011;56311;50.298;8.514;2023-11-21T11:02:01;7.6;;;3.9;;
69197;SDS011;56311;50.298;8.514;2023-11-21T11:04:00;10.0;;;3.9;;
69197;SDS011;56311;50.298;8.514;2023-11-21T11:06:00;7.9;;;4.0;;
69197;SDS011;56311;50.298;8.514;2023-11-21T11:08:02;10.2;;;4.4;;
69197;SDS011;56311;50.298;8.514;2023-11-21T11:10:00;7.7;;;3.7;;
69197;SDS011;56311;50.298;8.514;2023-11-21T11:12:00;8.8;;;3.9;;
69197;SDS011;56311;50.298;8.514;2023-11-21T11:14:00;8.8;;;3.6;;
69197;SDS011;56311;50.298;8.514;2023-11-21T11:16:00;9.9;;;4.2;;
69197;SDS011;56311;50.298;8.514;2023-11-21T11:18:00;8.4;;;4.1;;
69197;SDS011;56311;50.298;8.514;2023-11-21T11:20:00;10.2;;;4.3;;
69197;SDS011;56311;50.298;8.514;2023-11-21T11:22:02;8.5;;;3.7;;
69197;SDS011;56311;50.298;8.514;2023-11-21T11:24:05;8.5;;;3.5;;
69197;SDS011;56311;50.298;8.514;2023-11-21T11:26:05;9.3;;;3.5;;
69197;SDS011;56311;50.298;8.514;2023-11-21T11:28:01;9.0;;;3.4;;
69197;SDS011;56311;50.298;8.514;2023-11-21T11:30:03;6.9;;;3.1;;
69197;SDS011;56311;50.298;8.514;2023-11-21T11:32:03;6.3;;;3.0;;
69197;SDS011;56311;50.298;8.514;2023-11-21T11:34:01;7.7;;;3.6;;
69197;SDS011;56311;50.298;8.514;2023-11-21T11:36:02;7.5;;;3.3;;
69197;SDS011;56311;50.298;8.514;2023-11-21T11:38:01;7.9;;;3.4;;
69197;SDS011;56311;50.298;8.514;2023-11-21T11:40:00;8.9;;;3.6;;
69197;SDS011;56311;50.298;8.514;2023-11-21T11:42:01;8.8;;;3.6;;
69197;SDS011;56311;50.298;8.514;2023-11-21T11:44:01;7.7;;;3.5;;
69197;SDS011;56311;50.298;8.514;2023-11-21T11:46:02;8.3;;;3.6;;
69197;SDS011;56311;50.298;8.514;2023-11-21T11:48:00;10.0;;;3.4;;
69197;SDS011;56311;50.298;8.514;2023-11-21T11:50:01;8.9;;;3.4;;
69197;SDS011;56311;50.298;8.514;2023-11-21T11:54:00;9.1;;;3.5;;
69197;SDS011;56311;50.298;8.514;2023-11-21T11:58:00;8.2;;;3.1;;
69197;SDS011;56311;50.298;8.514;2023-11-21T12:02:00;8.2;;;3.4;;
69197;SDS011;56311;50.298;8.514;2023-11-21T12:06:00;8.1;;;3.2;;
69197;SDS011;56311;50.298;8.514;2023-11-21T12:08:01;8.1;;;3.6;;
69197;SDS011;56311;50.298;8.514;2023-11-21T12:10:00;7.1;;;3.3;;
69197;SDS011;56311;50.298;8.514;2023-11-21T12:12:00;8.4;;;3.4;;
69197;SDS011;56311;50.298;8.514;2023-11-21T12:14:00;6.5;;;3.4;;
69197;SDS011;56311;50.298;8.514;2023-11-21T12:16:00;10.4;;;3.5;;
69197;SDS011;56311;50.298;8.514;2023-11-21T12:18:00;8.0;;;3.6;;
69197;SDS011;56311;50.298;8.514;2023-11-21T12:20:01;11.0;;;3.7;;
69197;SDS011;56311;50.298;8.514;2023-11-21T12:22:00;9.8;;;4.1;;
69197;SDS011;56311;50.298;8.514;2023-11-21T12:24:00;9.8;;;3.8;;